Time;durP1;ratioP1;P1;durP2;ratioP2;P2;SDS_P1;SDS_P2;PMS_P1;PMS_P2;Temp;Humidity;BMP_temperature;BMP_pressure;BME280_temperature;BME280_humidity;BME280_pressure;Samples;Min_cycle;Max_cycle;Signal;HPM_P1;HPM_P2
2023/12/24 00:01:32;;;;;;;0.00;0.00;;;8.50;99.90;;;;;;5051075;28;20178;-69
2023/12/24 00:03:58;;;;;;;0.00;0.00;;;8.40;99.90;;;;;;5047214;28;20221;-69
2023/12/24 00:06:23;;;;;;;0.00;0.00;;;8.50;99.90;;;;;;5049750;28;20272;-69
2023/12/24 00:08:49;;;;;;;0.00;0.00;;;8.50;99.90;;;;;;5050640;28;20185;-69
2023/12/24 00:11:15;;;;;;;0.00;0.00;;;8.50;99.90;;;;;;5050643;28;20197;-70
2023/12/24 00:13:40;;;;;;;0.00;0.00;;;8.50;99.90;;;;;;5050858;28;20178;-70
2023/12/24 00:16:06;;;;;;;0.00;0.00;;;8.60;99.90;;;;;;5050734;28;20223;-70
2023/12/24 00:18:31;;;;;;;0.00;0.00;;;8.60;99.90;;;;;;5050560;28;20181;-69
2023/12/24 00:20:58;;;;;;;0.00;0.00;;;8.60;99.90;;;;;;5050513;28;20214;-70
2023/12/24 00:23:24;;;;;;;0.00;0.00;;;8.60;99.90;;;;;;5050732;28;20248;-70
2023/12/24 00:25:49;;;;;;;0.00;0.00;;;8.60;99.90;;;;;;5050561;28;20564;-70
2023/12/24 00:28:15;;;;;;;0.00;0.00;;;8.60;99.90;;;;;;5050682;28;20189;-70
2023/12/24 00:30:41;;;;;;;0.00;0.00;;;8.60;99.90;;;;;;5050707;28;20664;-69
2023/12/24 00:33:07;;;;;;;0.00;0.00;;;8.60;99.90;;;;;;5034863;28;20284;-69
2023/12/24 00:35:34;;;;;;;0.00;0.00;;;8.60;99.90;;;;;;5050385;28;20264;-71
2023/12/24 00:37:59;;;;;;;0.00;0.00;;;8.60;99.90;;;;;;5050419;28;20653;-70
2023/12/24 00:40:25;;;;;;;0.00;0.00;;;8.60;99.90;;;;;;5050491;28;20221;-69
2023/12/24 00:42:51;;;;;;;0.00;0.00;;;8.60;99.90;;;;;;5049943;28;20311;-69
2023/12/24 00:45:17;;;;;;;0.00;0.00;;;8.50;99.90;;;;;;5050498;28;20636;-69
2023/12/24 00:47:42;;;;;;;0.00;0.00;;;8.50;99.90;;;;;;5050626;28;20185;-69
2023/12/24 00:50:08;;;;;;;0.00;0.00;;;8.50;99.90;;;;;;5050366;28;20683;-69
2023/12/24 00:52:35;;;;;;;0.00;0.00;;;8.50;99.90;;;;;;5054685;28;20185;-69
2023/12/24 00:55:01;;;;;;;0.00;0.00;;;8.60;99.90;;;;;;5054163;28;20234;-69
2023/12/24 00:57:27;;;;;;;0.00;0.00;;;8.60;99.90;;;;;;5054639;28;20181;-69
2023/12/24 00:59:52;;;;;;;0.00;0.00;;;8.60;99.90;;;;;;5054233;28;20208;-69
2023/12/24 01:02:19;;;;;;;0.00;0.00;;;8.60;99.90;;;;;;5054077;28;20219;-70
2023/12/24 01:04:44;;;;;;;0.00;0.00;;;8.60;99.90;;;;;;5053981;28;20830;-69
2023/12/24 01:07:10;;;;;;;0.00;0.00;;;8.50;99.90;;;;;;5054090;28;20185;-70
2023/12/24 01:09:37;;;;;;;0.00;0.00;;;8.60;99.90;;;;;;5054277;28;20190;-69
2023/12/24 01:12:03;;;;;;;0.00;0.00;;;8.60;99.90;;;;;;5054056;28;20563;-68
2023/12/24 01:14:28;;;;;;;0.00;0.00;;;8.60;99.90;;;;;;5054046;28;20193;-69
2023/12/24 01:16:54;;;;;;;0.00;0.00;;;8.60;99.90;;;;;;5053768;28;20538;-68
2023/12/24 01:19:20;;;;;;;0.00;0.00;;;8.60;99.90;;;;;;5054141;28;20189;-69
2023/12/24 01:21:46;;;;;;;0.00;0.00;;;8.60;99.90;;;;;;5053977;28;20224;-68
2023/12/24 01:24:11;;;;;;;0.00;0.00;;;8.70;99.90;;;;;;5053909;28;20773;-69
2023/12/24 01:26:37;;;;;;;0.00;0.00;;;8.70;99.90;;;;;;5052763;28;20182;-69
2023/12/24 01:29:03;;;;;;;0.00;0.00;;;8.80;99.90;;;;;;5052312;28;20190;-69
2023/12/24 01:31:29;;;;;;;0.13;0.13;;;8.80;99.90;;;;;;5053489;28;20851;-69
2023/12/24 01:33:55;;;;;;;0.00;0.00;;;8.80;99.90;;;;;;5053865;28;20185;-69
2023/12/24 01:36:20;;;;;;;0.00;0.00;;;8.80;99.90;;;;;;5053492;28;20196;-69
2023/12/24 01:38:46;;;;;;;0.03;0.03;;;8.80;99.90;;;;;;5053589;28;20213;-70
2023/12/24 01:41:12;;;;;;;0.00;0.00;;;8.80;99.90;;;;;;5052115;28;20706;-70
2023/12/24 01:43:41;;;;;;;0.00;0.00;;;8.90;99.90;;;;;;5053628;28;20217;-69
2023/12/24 01:46:08;;;;;;;0.00;0.00;;;8.90;99.90;;;;;;5053244;28;20271;-69
2023/12/24 01:48:35;;;;;;;0.00;0.00;;;8.90;99.90;;;;;;5053304;28;20231;-69
2023/12/24 01:51:00;;;;;;;0.00;0.00;;;8.90;99.90;;;;;;5053144;28;20272;-70
2023/12/24 01:53:26;;;;;;;0.15;0.15;;;8.90;99.90;;;;;;5053308;28;20260;-69
2023/12/24 01:55:52;;;;;;;0.00;0.00;;;8.90;99.90;;;;;;5053117;28;20189;-70
2023/12/24 01:58:18;;;;;;;0.00;0.00;;;9.00;99.90;;;;;;5053480;28;20243;-70
2023/12/24 02:00:45;;;;;;;0.00;0.00;;;9.00;99.90;;;;;;5053187;28;20173;-69
2023/12/24 02:03:11;;;;;;;0.00;0.00;;;9.00;99.90;;;;;;5049406;28;20292;-70
2023/12/24 02:05:36;;;;;;;0.00;0.00;;;9.00;99.90;;;;;;5052839;28;20732;-70
2023/12/24 02:08:02;;;;;;;0.00;0.00;;;9.00;99.90;;;;;;5053060;28;20188;-70
2023/12/24 02:10:29;;;;;;;0.00;0.00;;;9.00;99.90;;;;;;5053057;28;20235;-69
2023/12/24 02:12:54;;;;;;;0.10;0.10;;;9.10;99.90;;;;;;5052889;28;20189;-70
2023/12/24 02:15:20;;;;;;;0.00;0.00;;;9.10;99.90;;;;;;5053103;28;20175;-70
2023/12/24 02:17:46;;;;;;;0.13;0.08;;;9.10;99.90;;;;;;5053200;28;20200;-69
2023/12/24 02:20:11;;;;;;;0.00;0.00;;;9.10;99.90;;;;;;5052326;28;20272;-70
2023/12/24 02:22:37;;;;;;;0.00;0.00;;;9.10;99.90;;;;;;5052692;28;20205;-71
2023/12/24 02:25:04;;;;;;;0.00;0.00;;;9.10;99.90;;;;;;5052801;28;20197;-70
2023/12/24 02:27:49;;;;;;;0.00;0.00;;;9.10;99.90;;;;;;5052836;28;20634;-69
2023/12/24 02:30:27;;;;;;;0.00;0.00;;;9.10;99.90;;;;;;5045141;28;20181;-69
2023/12/24 02:32:55;;;;;;;0.00;0.00;;;9.10;99.90;;;;;;5052265;28;20722;-69
2023/12/24 02:35:21;;;;;;;0.00;0.00;;;9.00;99.90;;;;;;5052176;28;20189;-69
2023/12/24 02:37:48;;;;;;;0.00;0.00;;;9.10;99.90;;;;;;5052716;28;20197;-70
2023/12/24 02:40:14;;;;;;;0.00;0.00;;;9.00;99.90;;;;;;5052508;28;20225;-70
2023/12/24 02:42:39;;;;;;;0.00;0.00;;;9.00;99.90;;;;;;5052271;28;20563;-70
2023/12/24 02:45:05;;;;;;;0.00;0.00;;;9.00;99.90;;;;;;5052079;28;20207;-71
2023/12/24 02:47:31;;;;;;;0.00;0.00;;;8.90;99.90;;;;;;5052414;28;20173;-69
2023/12/24 02:49:56;;;;;;;0.00;0.00;;;8.80;99.90;;;;;;5051890;28;20177;-69
2023/12/24 02:52:22;;;;;;;0.00;0.00;;;8.70;99.90;;;;;;5052385;28;20185;-70
2023/12/24 02:54:47;;;;;;;0.00;0.00;;;8.60;99.90;;;;;;5052348;28;20190;-69
2023/12/24 02:57:13;;;;;;;0.00;0.00;;;8.60;99.90;;;;;;5051923;28;20267;-69
2023/12/24 02:59:38;;;;;;;0.00;0.00;;;8.50;99.90;;;;;;5052254;28;20205;-69
2023/12/24 03:02:04;;;;;;;0.00;0.00;;;8.50;99.90;;;;;;5052162;28;20222;-69
2023/12/24 03:04:29;;;;;;;0.00;0.00;;;8.40;99.90;;;;;;5051811;28;20259;-68
2023/12/24 03:06:55;;;;;;;0.00;0.00;;;8.30;99.90;;;;;;5051649;28;20193;-69
2023/12/24 03:09:20;;;;;;;0.00;0.00;;;8.30;99.90;;;;;;5052085;28;20260;-69
2023/12/24 03:11:46;;;;;;;0.00;0.00;;;8.30;99.90;;;;;;5051639;28;20186;-68
2023/12/24 03:14:12;;;;;;;0.00;0.00;;;8.20;99.90;;;;;;5050840;28;20324;-69
2023/12/24 03:16:37;;;;;;;0.00;0.00;;;8.20;99.90;;;;;;5051862;28;20564;-69
2023/12/24 03:19:03;;;;;;;0.00;0.00;;;8.10;99.90;;;;;;5051444;28;20227;-68
2023/12/24 03:21:28;;;;;;;0.00;0.00;;;8.10;99.90;;;;;;5051833;28;20219;-68
2023/12/24 03:23:54;;;;;;;0.00;0.00;;;8.10;99.90;;;;;;5051436;28;20292;-68
2023/12/24 03:26:20;;;;;;;0.00;0.00;;;8.00;99.90;;;;;;5051691;28;20247;-68
2023/12/24 03:28:49;;;;;;;0.00;0.00;;;8.00;99.90;;;;;;5051485;28;20185;-68
2023/12/24 03:31:15;;;;;;;0.00;0.00;;;8.00;99.90;;;;;;5051455;28;20227;-68
2023/12/24 03:33:41;;;;;;;0.00;0.00;;;8.00;99.90;;;;;;5051640;28;20540;-68
2023/12/24 03:36:09;;;;;;;0.00;0.00;;;8.00;99.90;;;;;;5051191;28;20189;-68
2023/12/24 03:38:36;;;;;;;0.00;0.00;;;8.00;99.90;;;;;;5051163;28;20506;-67
2023/12/24 03:41:02;;;;;;;0.00;0.00;;;8.00;99.90;;;;;;5051333;28;20256;-69
2023/12/24 03:43:28;;;;;;;0.00;0.00;;;8.00;99.90;;;;;;5051432;28;20217;-68
2023/12/24 03:45:54;;;;;;;0.00;0.00;;;8.10;99.90;;;;;;5051361;28;20192;-68
2023/12/24 03:48:19;;;;;;;0.00;0.00;;;8.10;99.90;;;;;;5051196;28;20912;-68
2023/12/24 03:50:45;;;;;;;0.00;0.00;;;8.20;99.90;;;;;;5051070;28;20187;-68
2023/12/24 03:53:11;;;;;;;0.00;0.00;;;8.20;99.90;;;;;;5050619;28;20273;-68
2023/12/24 03:55:36;;;;;;;0.25;0.25;;;8.30;99.90;;;;;;5051218;28;20256;-69
2023/12/24 03:58:02;;;;;;;0.00;0.00;;;8.40;99.90;;;;;;5051106;28;20185;-68
2023/12/24 04:00:27;;;;;;;0.00;0.00;;;8.40;99.90;;;;;;5050965;28;20190;-70
2023/12/24 04:02:55;;;;;;;0.00;0.00;;;8.40;99.90;;;;;;5046132;28;20665;-68
2023/12/24 04:05:20;;;;;;;0.00;0.00;;;8.50;99.90;;;;;;5050842;28;20196;-68
2023/12/24 04:07:46;;;;;;;0.00;0.00;;;8.50;99.90;;;;;;5051023;28;20177;-68
2023/12/24 04:10:12;;;;;;;0.00;0.00;;;8.60;99.90;;;;;;5050636;28;20224;-68
2023/12/24 04:12:40;;;;;;;0.00;0.00;;;8.60;99.90;;;;;;5050900;28;20181;-68
2023/12/24 04:15:06;;;;;;;0.00;0.00;;;8.60;99.90;;;;;;5050518;28;20197;-69
2023/12/24 04:17:34;;;;;;;0.00;0.00;;;8.60;99.90;;;;;;5050746;28;20619;-70
2023/12/24 04:20:01;;;;;;;0.00;0.00;;;8.60;99.90;;;;;;5050611;28;20204;-69
2023/12/24 04:22:26;;;;;;;0.00;0.00;;;8.60;99.90;;;;;;5050644;28;20174;-68
2023/12/24 04:24:52;;;;;;;0.00;0.00;;;8.60;99.90;;;;;;5050281;28;20725;-68
2023/12/24 04:27:17;;;;;;;0.00;0.00;;;8.60;99.90;;;;;;5050563;28;20192;-68
2023/12/24 04:29:43;;;;;;;0.00;0.00;;;8.60;99.90;;;;;;5050621;28;20192;-66
2023/12/24 04:32:08;;;;;;;0.00;0.00;;;8.60;99.90;;;;;;5050482;28;20272;-68
2023/12/24 04:34:34;;;;;;;0.00;0.00;;;8.60;99.90;;;;;;5050322;28;20185;-69
2023/12/24 04:36:59;;;;;;;0.00;0.00;;;8.60;99.90;;;;;;5050232;28;20661;-69
2023/12/24 04:39:25;;;;;;;0.00;0.00;;;8.60;99.90;;;;;;5049938;28;20829;-69
2023/12/24 04:41:50;;;;;;;0.00;0.00;;;8.60;99.90;;;;;;5050276;28;20542;-69
2023/12/24 04:44:16;;;;;;;0.00;0.00;;;8.60;99.90;;;;;;5050478;28;20263;-69
2023/12/24 04:46:43;;;;;;;0.43;0.43;;;8.70;99.90;;;;;;5050475;28;20263;-69
2023/12/24 04:49:08;;;;;;;0.00;0.00;;;8.60;99.90;;;;;;5050452;28;20189;-69
2023/12/24 04:51:35;;;;;;;0.00;0.00;;;8.70;99.90;;;;;;5050090;28;20180;-69
2023/12/24 04:54:00;;;;;;;0.00;0.00;;;8.60;99.90;;;;;;5050180;28;20173;-70
2023/12/24 04:56:26;;;;;;;0.00;0.00;;;8.60;99.90;;;;;;5050547;28;20400;-69
2023/12/24 04:58:53;;;;;;;0.00;0.00;;;8.60;99.90;;;;;;5050053;28;20260;-69
2023/12/24 05:01:18;;;;;;;0.00;0.00;;;8.60;99.90;;;;;;5050505;28;20272;-69
2023/12/24 05:03:44;;;;;;;0.00;0.00;;;8.60;99.90;;;;;;5041459;28;20313;-70
2023/12/24 05:06:10;;;;;;;0.00;0.00;;;8.50;99.90;;;;;;5049770;28;20272;-69
2023/12/24 05:08:36;;;;;;;0.00;0.00;;;8.50;99.90;;;;;;5050107;28;20272;-68
2023/12/24 05:11:08;;;;;;;0.00;0.00;;;8.40;99.90;;;;;;5050267;28;20224;-66
2023/12/24 05:13:35;;;;;;;0.00;0.00;;;8.40;99.90;;;;;;5049356;28;20657;-67
2023/12/24 05:16:03;;;;;;;0.00;0.00;;;8.40;99.90;;;;;;5049609;28;20184;-66
2023/12/24 05:18:30;;;;;;;0.00;0.00;;;8.40;99.90;;;;;;5050614;28;20181;-67
2023/12/24 05:20:55;;;;;;;0.00;0.00;;;8.40;99.90;;;;;;5051331;28;20181;-68
2023/12/24 05:23:21;;;;;;;0.00;0.00;;;8.40;99.90;;;;;;5051176;28;20205;-68
2023/12/24 05:25:47;;;;;;;0.00;0.00;;;8.40;99.90;;;;;;5050649;28;20814;-68
2023/12/24 05:28:14;;;;;;;0.00;0.00;;;8.40;99.90;;;;;;5049902;28;20181;-69
2023/12/24 05:30:39;;;;;;;0.00;0.00;;;8.40;99.90;;;;;;5049884;28;20192;-68
2023/12/24 05:33:05;;;;;;;0.00;0.00;;;8.40;99.90;;;;;;5050380;28;20397;-68
2023/12/24 05:35:30;;;;;;;0.00;0.00;;;8.40;99.90;;;;;;5049896;28;20251;-68
2023/12/24 05:37:56;;;;;;;0.00;0.00;;;8.50;99.90;;;;;;5052760;28;20174;-68
2023/12/24 05:40:21;;;;;;;0.00;0.00;;;8.50;99.90;;;;;;5053047;28;20217;-68
2023/12/24 05:42:47;;;;;;;0.00;0.00;;;8.50;99.90;;;;;;5053785;28;20197;-69
2023/12/24 05:45:13;;;;;;;0.00;0.00;;;8.50;99.90;;;;;;5052280;28;20204;-70
2023/12/24 05:47:38;;;;;;;0.00;0.00;;;8.50;99.90;;;;;;5053492;28;20177;-69
2023/12/24 05:50:05;;;;;;;0.00;0.00;;;8.50;99.90;;;;;;5053259;28;20189;-70
2023/12/24 05:52:31;;;;;;;0.00;0.00;;;8.50;99.90;;;;;;5052836;28;20622;-69
2023/12/24 05:54:56;;;;;;;0.00;0.00;;;8.50;99.90;;;;;;5053427;28;20251;-70
2023/12/24 05:57:22;;;;;;;0.00;0.00;;;8.50;99.90;;;;;;5053338;28;20188;-69
2023/12/24 05:59:47;;;;;;;0.00;0.00;;;8.50;99.90;;;;;;5053187;28;20192;-69
2023/12/24 06:02:13;;;;;;;0.00;0.00;;;8.60;99.90;;;;;;5053394;28;20177;-69
2023/12/24 06:04:39;;;;;;;0.00;0.00;;;8.60;99.90;;;;;;5041355;28;20295;-69
2023/12/24 06:07:05;;;;;;;0.00;0.00;;;8.60;99.90;;;;;;5062418;28;20180;-70
2023/12/24 06:09:31;;;;;;;0.00;0.00;;;8.60;99.90;;;;;;5051944;28;20641;-69
2023/12/24 06:11:57;;;;;;;0.00;0.00;;;8.70;99.90;;;;;;5051386;28;20205;-69
2023/12/24 06:14:22;;;;;;;0.00;0.00;;;8.70;99.90;;;;;;5053173;28;20209;-70
2023/12/24 06:16:48;;;;;;;0.00;0.00;;;8.80;99.90;;;;;;5053067;28;20653;-68
2023/12/24 06:19:13;;;;;;;0.00;0.00;;;8.90;99.90;;;;;;5053159;28;20185;-69
2023/12/24 06:21:39;;;;;;;0.00;0.00;;;9.00;99.90;;;;;;5052683;28;20241;-69
2023/12/24 06:24:05;;;;;;;0.00;0.00;;;9.00;99.90;;;;;;5052328;28;20213;-68
2023/12/24 06:26:33;;;;;;;0.00;0.00;;;9.00;99.90;;;;;;5052860;28;20181;-69
2023/12/24 06:28:59;;;;;;;0.00;0.00;;;9.00;99.90;;;;;;5052799;28;20174;-69
2023/12/24 06:31:25;;;;;;;0.00;0.00;;;9.20;99.90;;;;;;5052991;28;20706;-69
2023/12/24 06:33:51;;;;;;;0.00;0.00;;;9.20;99.90;;;;;;5052801;28;20212;-68
2023/12/24 06:36:17;;;;;;;0.00;0.00;;;9.20;99.90;;;;;;5058251;28;20189;-68
2023/12/24 06:38:42;;;;;;;0.00;0.00;;;9.30;99.90;;;;;;5052219;28;20225;-68
2023/12/24 06:41:08;;;;;;;0.00;0.00;;;9.30;99.90;;;;;;5052425;28;20181;-69
2023/12/24 06:43:34;;;;;;;0.00;0.00;;;9.30;99.90;;;;;;5052513;28;20672;-69
2023/12/24 06:45:59;;;;;;;0.00;0.00;;;9.30;99.90;;;;;;5052158;28;20177;-69
2023/12/24 06:48:25;;;;;;;0.00;0.00;;;9.30;99.90;;;;;;5052420;28;20639;-69
2023/12/24 06:50:50;;;;;;;0.00;0.00;;;9.30;99.90;;;;;;5051980;28;20176;-68
2023/12/24 06:53:17;;;;;;;0.00;0.00;;;9.30;99.90;;;;;;5052403;28;20555;-68
2023/12/24 06:55:42;;;;;;;0.00;0.00;;;9.30;99.90;;;;;;5052291;28;20189;-67
2023/12/24 06:58:08;;;;;;;0.00;0.00;;;9.20;99.90;;;;;;5051959;28;20198;-68
2023/12/24 07:00:33;;;;;;;0.00;0.00;;;9.20;99.90;;;;;;5052277;28;20188;-68
2023/12/24 07:02:59;;;;;;;0.00;0.00;;;9.10;99.90;;;;;;5046445;28;20256;-68
2023/12/24 07:05:24;;;;;;;0.00;0.00;;;9.10;99.90;;;;;;5051009;28;20589;-68
2023/12/24 07:07:50;;;;;;;0.00;0.00;;;9.10;99.90;;;;;;5052179;28;20186;-68
2023/12/24 07:10:16;;;;;;;0.00;0.00;;;9.00;99.90;;;;;;5051611;28;20190;-69
2023/12/24 07:12:41;;;;;;;0.00;0.00;;;9.00;99.90;;;;;;5051981;28;20192;-68
2023/12/24 07:15:07;;;;;;;0.00;0.00;;;9.00;99.90;;;;;;5051960;28;20182;-69
2023/12/24 07:17:33;;;;;;;0.00;0.00;;;8.90;99.90;;;;;;5052127;28;20231;-69
2023/12/24 07:20:00;;;;;;;0.00;0.00;;;8.90;99.90;;;;;;5051154;28;20581;-69
2023/12/24 07:22:25;;;;;;;0.00;0.00;;;8.90;99.90;;;;;;5051152;28;20848;-69
2023/12/24 07:24:51;;;;;;;0.00;0.00;;;8.90;99.90;;;;;;5051418;28;20319;-69
2023/12/24 07:27:16;;;;;;;0.00;0.00;;;8.90;99.90;;;;;;5051720;28;20181;-69
2023/12/24 07:29:42;;;;;;;0.00;0.00;;;8.90;99.90;;;;;;5051621;28;20238;-68
2023/12/24 07:32:08;;;;;;;0.00;0.00;;;8.90;99.90;;;;;;5051124;28;20283;-70
2023/12/24 07:34:33;;;;;;;0.00;0.00;;;8.90;99.90;;;;;;5051701;28;20180;-69
2023/12/24 07:36:59;;;;;;;0.00;0.00;;;9.00;99.90;;;;;;5061168;28;20200;-69
2023/12/24 07:39:25;;;;;;;0.00;0.00;;;8.90;99.90;;;;;;5051246;28;20787;-67
2023/12/24 07:41:51;;;;;;;0.00;0.00;;;9.00;99.90;;;;;;5051024;28;20193;-68
2023/12/24 07:44:17;;;;;;;0.00;0.00;;;9.00;99.90;;;;;;5051055;28;20231;-69
2023/12/24 07:46:44;;;;;;;0.00;0.00;;;9.00;99.90;;;;;;5051283;28;20609;-68
2023/12/24 07:49:09;;;;;;;0.00;0.00;;;9.00;99.90;;;;;;5051270;28;20223;-69
2023/12/24 07:51:35;;;;;;;0.00;0.00;;;9.00;99.90;;;;;;5051015;28;20656;-70
2023/12/24 07:54:03;;;;;;;0.00;0.00;;;9.10;99.90;;;;;;5051352;28;20177;-70
2023/12/24 07:56:30;;;;;;;0.00;0.00;;;9.10;99.90;;;;;;5051048;28;20251;-69
2023/12/24 07:58:55;;;;;;;0.00;0.00;;;9.10;99.90;;;;;;5050916;28;20206;-69
2023/12/24 08:01:21;;;;;;;0.00;0.00;;;9.10;99.90;;;;;;5051215;28;20658;-69
2023/12/24 08:03:47;;;;;;;0.00;0.00;;;9.20;99.90;;;;;;5050466;28;20240;-69
2023/12/24 08:06:12;;;;;;;0.00;0.00;;;9.20;99.90;;;;;;5063337;28;20185;-69
2023/12/24 08:08:38;;;;;;;0.00;0.00;;;9.20;99.90;;;;;;5050839;28;20543;-69
2023/12/24 08:11:03;;;;;;;0.00;0.00;;;9.20;99.90;;;;;;5050925;28;20213;-70
2023/12/24 08:13:29;;;;;;;0.00;0.00;;;9.20;99.90;;;;;;5050957;28;20185;-69
2023/12/24 08:15:55;;;;;;;0.00;0.00;;;9.20;99.90;;;;;;5050610;28;20192;-68
2023/12/24 08:18:20;;;;;;;0.00;0.00;;;9.20;99.90;;;;;;5050604;28;20180;-69
2023/12/24 08:20:46;;;;;;;0.00;0.00;;;9.20;99.90;;;;;;5049351;28;20185;-69
2023/12/24 08:23:12;;;;;;;0.00;0.00;;;9.20;99.90;;;;;;5049946;28;20209;-70
2023/12/24 08:25:37;;;;;;;0.00;0.00;;;9.20;99.90;;;;;;5050664;28;20200;-68
2023/12/24 08:28:05;;;;;;;0.00;0.00;;;9.20;99.90;;;;;;5049422;28;20258;-68
2023/12/24 08:30:31;;;;;;;0.00;0.00;;;9.20;99.90;;;;;;5050735;28;20307;-69
2023/12/24 08:32:57;;;;;;;0.00;0.00;;;9.20;99.90;;;;;;5034540;28;20275;-67
2023/12/24 08:35:22;;;;;;;0.00;0.00;;;9.20;99.90;;;;;;5056861;28;20189;-68
2023/12/24 08:37:48;;;;;;;0.00;0.00;;;9.20;99.90;;;;;;5059923;28;20189;-65
2023/12/24 08:40:13;;;;;;;0.00;0.00;;;9.20;99.90;;;;;;5050609;28;20221;-66
2023/12/24 08:42:39;;;;;;;0.00;0.00;;;9.20;99.90;;;;;;5050512;28;20288;-70
2023/12/24 08:45:05;;;;;;;0.00;0.00;;;9.20;99.90;;;;;;5049726;28;20192;-74
2023/12/24 08:47:30;;;;;;;0.08;0.08;;;9.20;99.90;;;;;;5050667;28;20170;-72
2023/12/24 08:49:57;;;;;;;0.00;0.00;;;9.20;99.90;;;;;;5050599;28;20715;-66
2023/12/24 08:52:23;;;;;;;0.00;0.00;;;9.20;99.90;;;;;;5050583;28;20546;-70
2023/12/24 08:54:48;;;;;;;0.00;0.00;;;9.10;99.90;;;;;;5049213;28;20227;-73
2023/12/24 08:57:14;;;;;;;0.00;0.00;;;9.10;99.90;;;;;;5051809;28;20211;-73
2023/12/24 08:59:39;;;;;;;0.00;0.00;;;9.10;99.90;;;;;;5049657;28;20664;-73
2023/12/24 09:02:05;;;;;;;0.00;0.00;;;9.00;99.90;;;;;;5050583;28;20633;-73
2023/12/24 09:04:31;;;;;;;0.00;0.00;;;9.00;99.90;;;;;;5050616;28;20224;-73
2023/12/24 09:06:57;;;;;;;0.00;0.00;;;8.90;99.90;;;;;;5069439;28;20523;-72
2023/12/24 09:09:23;;;;;;;0.00;0.00;;;9.00;99.90;;;;;;5070784;28;20177;-73
2023/12/24 09:11:49;;;;;;;0.00;0.00;;;8.90;99.90;;;;;;5060617;28;20193;-72
2023/12/24 09:14:15;;;;;;;0.00;0.00;;;8.90;99.90;;;;;;5054555;28;20181;-72
2023/12/24 09:16:40;;;;;;;0.08;0.08;;;8.90;99.90;;;;;;5054536;28;20311;-72
2023/12/24 09:19:06;;;;;;;0.00;0.00;;;8.90;99.90;;;;;;5054478;28;20538;-71
2023/12/24 09:21:31;;;;;;;0.00;0.00;;;8.90;99.90;;;;;;5054229;28;20529;-72
2023/12/24 09:23:58;;;;;;;0.00;0.00;;;8.90;99.90;;;;;;5054316;28;20209;-73
2023/12/24 09:26:24;;;;;;;0.00;0.00;;;8.90;99.90;;;;;;5054425;28;20177;-71
2023/12/24 09:28:50;;;;;;;0.00;0.00;;;8.90;99.90;;;;;;5054100;28;20307;-72
2023/12/24 09:31:15;;;;;;;0.00;0.00;;;8.90;99.90;;;;;;5054296;28;20629;-73
2023/12/24 09:33:41;;;;;;;0.00;0.00;;;8.90;99.90;;;;;;5054303;28;20255;-72
2023/12/24 09:36:07;;;;;;;0.00;0.00;;;8.90;99.90;;;;;;5065889;28;20197;-71
2023/12/24 09:38:35;;;;;;;0.00;0.00;;;8.90;99.90;;;;;;5062902;28;20229;-72
2023/12/24 09:41:01;;;;;;;0.00;0.00;;;8.90;99.90;;;;;;5054081;28;20654;-72
2023/12/24 09:43:31;;;;;;;0.00;0.00;;;8.90;99.90;;;;;;5054047;28;20217;-74
2023/12/24 09:45:57;;;;;;;0.00;0.00;;;8.90;99.90;;;;;;5052337;28;20675;-71
2023/12/24 09:48:23;;;;;;;0.00;0.00;;;8.90;99.90;;;;;;5053563;28;20214;-72
2023/12/24 09:50:48;;;;;;;0.00;0.00;;;9.00;99.90;;;;;;5053479;28;20216;-73
2023/12/24 09:53:14;;;;;;;0.00;0.00;;;9.00;99.90;;;;;;5053703;28;20177;-71
2023/12/24 09:55:40;;;;;;;0.00;0.00;;;9.00;99.90;;;;;;5052867;28;20288;-72
2023/12/24 09:58:06;;;;;;;0.00;0.00;;;9.00;99.90;;;;;;5053229;28;20260;-72
2023/12/24 10:00:31;;;;;;;0.00;0.00;;;9.00;99.90;;;;;;5052973;28;20264;-71
2023/12/24 10:02:57;;;;;;;0.00;0.00;;;9.00;99.90;;;;;;5053333;28;20332;-71
2023/12/24 10:05:22;;;;;;;0.00;0.00;;;9.00;99.90;;;;;;5059603;28;20279;-72
2023/12/24 10:07:48;;;;;;;0.00;0.00;;;9.10;99.90;;;;;;5064383;28;20181;-72
2023/12/24 10:10:13;;;;;;;0.00;0.00;;;9.10;99.90;;;;;;5052679;28;20189;-73
2023/12/24 10:12:42;;;;;;;0.00;0.00;;;9.10;99.90;;;;;;5052758;28;20260;-73
2023/12/24 10:15:08;;;;;;;0.00;0.00;;;9.20;99.90;;;;;;5052820;28;20185;-73
2023/12/24 10:17:35;;;;;;;0.00;0.00;;;9.20;99.90;;;;;;5053336;28;20691;-73
2023/12/24 10:20:06;;;;;;;0.00;0.00;;;9.20;99.90;;;;;;5052636;28;20182;-73
2023/12/24 10:22:31;;;;;;;0.00;0.00;;;9.20;99.90;;;;;;5052260;28;20173;-71
2023/12/24 10:25:05;;;;;;;0.00;0.00;;;9.20;99.90;;;;;;5051099;28;20209;-73
2023/12/24 10:27:31;;;;;;;0.00;0.00;;;9.30;99.90;;;;;;5052783;28;20550;-72
2023/12/24 10:30:13;;;;;;;0.00;0.00;;;9.30;99.90;;;;;;5052997;28;20182;-72
2023/12/24 10:32:41;;;;;;;0.00;0.00;;;9.30;99.90;;;;;;5053225;28;20223;-72
2023/12/24 10:35:06;;;;;;;0.00;0.00;;;9.30;99.90;;;;;;5052623;28;20239;-73
2023/12/24 10:37:33;;;;;;;0.00;0.00;;;9.40;99.90;;;;;;5052699;28;20261;-71
2023/12/24 10:40:10;;;;;;;0.10;0.10;;;9.40;99.90;;;;;;5052388;28;20224;-72
2023/12/24 10:42:39;;;;;;;0.00;0.00;;;9.40;99.90;;;;;;5052724;28;20181;-71
2023/12/24 10:45:07;;;;;;;0.00;0.00;;;9.40;99.90;;;;;;5052454;28;20197;-72
2023/12/24 10:47:33;;;;;;;0.00;0.00;;;9.40;99.90;;;;;;5052252;28;20779;-72
2023/12/24 10:49:59;;;;;;;0.00;0.00;;;9.50;99.90;;;;;;5052529;28;20185;-73
2023/12/24 10:52:24;;;;;;;0.00;0.00;;;9.50;99.90;;;;;;5052664;28;20177;-74
2023/12/24 10:54:55;;;;;;;0.00;0.00;;;9.50;99.90;;;;;;5052515;28;20613;-72
2023/12/24 10:57:43;;;;;;;0.00;0.00;;;9.60;99.90;;;;;;5036710;28;20187;-72
2023/12/24 11:00:12;;;;;;;0.00;0.00;;;9.60;99.90;;;;;;5051877;28;20269;-73
2023/12/24 11:02:47;;;;;;;0.00;0.00;;;9.60;99.90;;;;;;5048676;28;20692;-74
2023/12/24 11:05:46;;;;;;;0.00;0.00;;;9.70;99.90;;;;;;5053405;28;20691;-72
2023/12/24 11:08:21;;;;;;;0.00;0.00;;;9.70;99.90;;;;;;5050907;28;20201;-72
2023/12/24 11:10:54;;;;;;;0.00;0.00;;;9.70;99.90;;;;;;5051774;28;20193;-72
2023/12/24 11:13:43;;;;;;;0.00;0.00;;;9.80;99.90;;;;;;5052384;28;20177;-72
2023/12/24 11:16:12;;;;;;;0.00;0.00;;;9.70;99.90;;;;;;5051831;28;20247;-72
2023/12/24 11:18:46;;;;;;;0.00;0.00;;;9.80;99.90;;;;;;5052314;28;20181;-72
2023/12/24 11:21:19;;;;;;;0.00;0.00;;;9.80;99.90;;;;;;5050725;28;20215;-75
2023/12/24 11:24:11;;;;;;;0.00;0.00;;;9.80;99.90;;;;;;5048673;28;20692;-72
2023/12/24 11:26:36;;;;;;;0.00;0.00;;;9.90;99.90;;;;;;5051787;28;20289;-73
2023/12/24 11:29:40;;;;;;;0.00;0.00;;;9.90;99.90;;;;;;5051653;28;20260;-73
2023/12/24 11:32:24;;;;;;;0.00;0.00;;;9.90;99.90;;;;;;5051495;28;20177;-74
2023/12/24 11:34:50;;;;;;;0.00;0.00;;;10.00;99.90;;;;;;5052372;28;20208;-74
2023/12/24 11:37:29;;;;;;;0.00;0.00;;;10.00;99.90;;;;;;5052197;28;20196;-73
2023/12/24 11:40:02;;;;;;;0.00;0.00;;;10.00;99.90;;;;;;5051483;28;20856;-72
2023/12/24 11:42:50;;;;;;;0.00;0.00;;;10.10;99.90;;;;;;5051587;28;20185;-73
2023/12/24 11:45:31;;;;;;;0.00;0.00;;;10.20;99.90;;;;;;5048888;28;20200;-73
2023/12/24 11:47:57;;;;;;;0.00;0.00;;;10.30;99.90;;;;;;5051141;28;20515;-74
2023/12/24 11:50:24;;;;;;;0.00;0.00;;;10.40;99.90;;;;;;5051281;28;20193;-68
2023/12/24 11:52:50;;;;;;;0.00;0.00;;;10.40;99.90;;;;;;5050972;28;20182;-66
2023/12/24 11:55:20;;;;;;;0.00;0.00;;;10.40;99.90;;;;;;5050711;28;20660;-68
2023/12/24 11:57:48;;;;;;;0.00;0.00;;;10.40;99.90;;;;;;5051589;28;20637;-69
2023/12/24 12:00:23;;;;;;;0.00;0.00;;;10.40;99.90;;;;;;5052543;28;20256;-71
2023/12/24 12:03:02;;;;;;;0.00;0.00;;;10.30;99.90;;;;;;5050162;28;20315;-70
2023/12/24 12:05:28;;;;;;;0.00;0.00;;;10.30;99.90;;;;;;5056606;28;20275;-72
2023/12/24 12:07:54;;;;;;;0.00;0.00;;;10.20;99.90;;;;;;5054721;28;20558;-70
2023/12/24 12:10:20;;;;;;;0.00;0.00;;;10.20;99.90;;;;;;5061958;28;20212;-69
2023/12/24 12:12:45;;;;;;;0.00;0.00;;;10.10;99.90;;;;;;5063982;28;20197;-69
2023/12/24 12:15:11;;;;;;;0.10;0.10;;;10.10;99.90;;;;;;5062173;28;20192;-71
2023/12/24 12:17:37;;;;;;;0.00;0.00;;;10.10;99.90;;;;;;5067443;28;20255;-68
2023/12/24 12:20:04;;;;;;;0.00;0.00;;;10.10;99.90;;;;;;5063463;28;20185;-71
2023/12/24 12:22:30;;;;;;;0.00;0.00;;;10.10;99.90;;;;;;5057205;28;20193;-69
2023/12/24 12:24:55;;;;;;;0.00;0.00;;;10.10;99.90;;;;;;5054573;28;20545;-71
2023/12/24 12:27:21;;;;;;;0.00;0.00;;;10.10;99.90;;;;;;5052986;28;20190;-71
2023/12/24 12:29:46;;;;;;;0.00;0.00;;;10.10;99.90;;;;;;5054446;28;20181;-71
2023/12/24 12:32:12;;;;;;;0.00;0.00;;;10.00;99.90;;;;;;5054072;28;20182;-74
2023/12/24 12:34:38;;;;;;;0.00;0.00;;;10.00;99.90;;;;;;5052228;28;20177;-77
2023/12/24 12:37:04;;;;;;;0.00;0.00;;;10.00;99.90;;;;;;5054175;28;20177;-70
2023/12/24 12:39:30;;;;;;;0.00;0.00;;;10.00;99.90;;;;;;5053712;28;20224;-70
2023/12/24 12:41:56;;;;;;;0.00;0.00;;;10.00;99.90;;;;;;5051607;28;20235;-72
2023/12/24 12:44:22;;;;;;;0.00;0.00;;;10.00;99.90;;;;;;5049213;28;20622;-72
2023/12/24 12:46:48;;;;;;;0.00;0.00;;;10.00;99.90;;;;;;5055972;28;20181;-73
2023/12/24 12:49:13;;;;;;;0.00;0.00;;;10.00;99.90;;;;;;5057158;28;20695;-73
2023/12/24 12:51:39;;;;;;;0.00;0.00;;;9.90;99.90;;;;;;5057322;28;20181;-72
2023/12/24 12:54:06;;;;;;;0.00;0.00;;;9.90;99.90;;;;;;5056771;28;20199;-70